| Date | Time | Temp. (oF) | Dew Point (oF) | Rel. Hum. (%) | Press. (in.) | Wind Dir. | Wind Speed (mph) | Hourly Rainfall (in.) |
|
|---|---|---|---|---|---|---|---|---|---|
| 1 | 12/21 | 00:00 | 33 | 23 | 68 | 30.34 | S | 4 | 0.00 |
| 2 | 12/20 | 23:00 | 31 | 19 | 61 | 30.35 | S | 0 | 0.00 |
| 3 | 12/20 | 22:00 | 32 | 18 | 57 | 30.36 | E | 0 | 0.00 |
| 4 | 12/20 | 21:00 | 33 | 18 | 55 | 30.39 | SSW | 0 | 0.00 |
| 5 | 12/20 | 20:00 | 32 | 19 | 60 | 30.40 | SSW | 4 | 0.00 |
| 6 | 12/20 | 19:00 | 33 | 17 | 53 | 30.39 | S | 0 | 0.00 |
| 7 | 12/20 | 18:00 | 35 | 17 | 49 | 30.40 | ESE | 3 | 0.00 |
| 8 | 12/20 | 17:00 | 38 | 16 | 42 | 30.41 | SSW | 0 | 0.00 |
| 9 | 12/20 | 16:00 | 40 | 16 | 39 | 30.39 | SSW | 5 | 0.00 |
| 10 | 12/20 | 15:00 | 41 | 18 | 40 | 30.41 | SW | 3 | 0.00 |
| 11 | 12/20 | 14:00 | 40 | 18 | 42 | 30.41 | SSW | 7 | 0.00 |
| 12 | 12/20 | 13:00 | 39 | 19 | 45 | 30.43 | SW | 7 | 0.00 |
| 13 | 12/20 | 12:00 | 37 | 19 | 48 | 30.46 | SSW | 4 | 0.00 |
| 14 | 12/20 | 11:00 | 35 | 17 | 49 | 30.51 | W | 5 | 0.00 |
| 15 | 12/20 | 10:00 | 34 | 17 | 50 | 30.52 | WSW | 7 | 0.00 |
| 16 | 12/20 | 09:00 | 30 | 16 | 56 | 30.48 | SW | 1 | 0.00 |
| 17 | 12/20 | 08:00 | 26 | 15 | 63 | 30.49 | SSW | 3 | 0.00 |
| 18 | 12/20 | 07:00 | 26 | 15 | 63 | 30.46 | SW | 3 | 0.00 |
| 19 | 12/20 | 06:00 | 27 | 14 | 59 | 30.43 | WNW | 1 | 0.00 |
| 20 | 12/20 | 05:00 | 27 | 14 | 59 | 30.41 | WSW | 2 | 0.00 |
| 21 | 12/20 | 04:00 | 25 | 15 | 66 | 30.40 | W | 2 | 0.00 |
| 22 | 12/20 | 03:00 | 27 | 16 | 63 | 30.39 | N | 0 | 0.00 |
| 23 | 12/20 | 02:00 | 27 | 17 | 66 | 30.36 | WSW | 0 | 0.00 |
| 24 | 12/20 | 01:00 | 28 | 16 | 62 | 30.33 | W | 3 | 0.00 |